createdAt,value
2019-05-25T00:01:57.598Z,71.27
2019-05-25T00:04:26.047Z,71.21
2019-05-25T00:06:54.448Z,71.55
2019-05-25T00:09:22.854Z,71.84
2019-05-25T00:11:51.248Z,72.80
2019-05-25T00:14:19.651Z,72.85
2019-05-25T00:16:48.067Z,72.73
2019-05-25T00:19:16.506Z,72.70
2019-05-25T00:21:44.899Z,73.22
2019-05-25T00:24:13.325Z,72.59
2019-05-25T00:26:41.718Z,72.53
2019-05-25T00:29:10.138Z,72.23
2019-05-25T00:31:38.546Z,72.60
2019-05-25T00:34:06.954Z,72.33
2019-05-25T00:36:35.348Z,72.70
2019-05-25T00:39:05.426Z,71.70
2019-05-25T00:41:33.825Z,71.73
2019-05-25T00:44:02.265Z,71.02
2019-05-25T00:46:30.646Z,70.59
2019-05-25T00:48:59.084Z,70.56
2019-05-25T00:51:27.487Z,70.54
2019-05-25T00:53:55.899Z,69.98
2019-05-25T00:56:24.307Z,69.92
2019-05-25T00:58:52.719Z,70.02
2019-05-25T01:01:24.347Z,69.93
2019-05-25T01:03:51.260Z,69.22
2019-05-25T01:06:19.693Z,69.10
2019-05-25T01:08:48.114Z,68.81
2019-05-25T01:11:16.550Z,69.16
2019-05-25T01:13:45.061Z,69.05
2019-05-25T01:16:13.464Z,69.12
2019-05-25T01:18:41.873Z,68.69
2019-05-25T01:21:10.375Z,68.51
2019-05-25T01:23:38.789Z,69.04
2019-05-25T01:26:07.196Z,69.28
2019-05-25T01:28:37.785Z,69.29
2019-05-25T01:31:05.754Z,69.24
2019-05-25T01:33:34.152Z,68.86
2019-05-25T01:36:02.562Z,68.54
2019-05-25T01:38:30.956Z,68.46
2019-05-25T01:40:59.456Z,68.47
2019-05-25T01:43:27.853Z,68.50
2019-05-25T01:45:56.269Z,68.15
2019-05-25T01:48:24.667Z,68.24
2019-05-25T01:50:53.078Z,68.02
2019-05-25T01:53:21.479Z,67.80
2019-05-25T01:55:49.889Z,67.60
2019-05-25T01:58:18.290Z,67.69
2019-05-25T02:00:46.712Z,67.23
2019-05-25T02:03:15.114Z,66.66
2019-05-25T02:05:43.806Z,67.42
2019-05-25T02:08:12.185Z,67.46
2019-05-25T02:10:40.592Z,67.00
2019-05-25T02:13:08.990Z,67.02
2019-05-25T02:15:37.396Z,67.36
2019-05-25T02:18:05.802Z,67.49
2019-05-25T02:20:34.222Z,67.08
2019-05-25T02:23:02.728Z,67.41
2019-05-25T02:25:31.212Z,67.45
2019-05-25T02:27:59.607Z,67.81
2019-05-25T02:30:28.482Z,68.01
2019-05-25T02:32:57.041Z,68.02
2019-05-25T02:35:27.593Z,67.66
2019-05-25T02:37:57.037Z,67.52
2019-05-25T02:40:25.846Z,68.33
2019-05-25T02:42:54.479Z,68.89
2019-05-25T02:45:23.052Z,68.14
2019-05-25T02:47:51.631Z,67.90
2019-05-25T02:50:20.480Z,68.33
2019-05-25T02:52:49.044Z,67.95
2019-05-25T02:55:33.027Z,67.52
2019-05-25T02:57:47.911Z,67.87
2019-05-25T03:00:18.108Z,67.83
2019-05-25T03:02:47.026Z,67.97
2019-05-25T03:05:15.939Z,68.34
2019-05-25T03:07:46.980Z,69.03
2019-05-25T03:10:15.713Z,69.22
2019-05-25T03:12:44.773Z,68.87
2019-05-25T03:15:13.872Z,68.89
2019-05-25T03:17:42.257Z,69.93
2019-05-25T03:20:10.998Z,69.78
2019-05-25T03:22:39.399Z,69.38
2019-05-25T03:25:08.051Z,69.51
2019-05-25T03:27:36.451Z,69.92
2019-05-25T03:30:07.468Z,69.41
2019-05-25T03:32:36.076Z,68.69
2019-05-25T03:35:06.629Z,68.85
2019-05-25T03:37:35.099Z,70.31
2019-05-25T03:40:05.285Z,69.69
2019-05-25T03:42:33.829Z,69.60
2019-05-25T03:45:02.244Z,69.73
2019-05-25T03:47:30.645Z,69.10
2019-05-25T03:49:59.052Z,69.42
2019-05-25T03:52:27.450Z,69.22
2019-05-25T03:54:55.859Z,68.91
2019-05-25T03:57:24.262Z,68.68
2019-05-25T03:59:52.684Z,69.10
2019-05-25T04:02:21.088Z,69.53
2019-05-25T04:04:49.485Z,69.53
2019-05-25T04:07:17.892Z,69.53
2019-05-25T04:09:46.280Z,69.65
2019-05-25T04:12:14.694Z,69.15
2019-05-25T04:14:43.103Z,69.68
2019-05-25T04:17:11.514Z,69.72
2019-05-25T04:19:39.908Z,69.86
2019-05-25T04:22:08.313Z,69.76
2019-05-25T04:24:36.719Z,69.46
2019-05-25T04:27:05.218Z,69.87
2019-05-25T04:29:33.617Z,69.75
2019-05-25T04:32:02.026Z,70.25
2019-05-25T04:34:30.422Z,69.98
2019-05-25T04:36:58.829Z,69.53
2019-05-25T04:39:27.224Z,69.38
2019-05-25T04:41:55.632Z,69.22
2019-05-25T04:44:24.037Z,68.97
2019-05-25T04:46:52.440Z,68.75
2019-05-25T04:49:20.844Z,68.54
2019-05-25T04:51:49.248Z,68.04
2019-05-25T04:54:17.657Z,68.53
2019-05-25T04:56:46.062Z,67.94
2019-05-25T04:59:14.461Z,67.90
2019-05-25T05:01:42.875Z,68.06
2019-05-25T05:04:11.276Z,67.68
2019-05-25T05:06:39.689Z,67.92
2019-05-25T05:09:08.155Z,68.61
2019-05-25T05:11:36.608Z,69.47
2019-05-25T05:14:05.157Z,69.77
2019-05-25T05:16:33.579Z,70.62
2019-05-25T05:19:01.979Z,71.20
2019-05-25T05:21:30.379Z,70.93
2019-05-25T05:23:58.785Z,71.51
2019-05-25T05:26:27.205Z,72.59
2019-05-25T05:28:55.597Z,72.96
2019-05-25T05:31:24.115Z,72.66
2019-05-25T05:33:52.581Z,72.24
2019-05-25T05:36:22.424Z,71.76
2019-05-25T05:38:51.703Z,71.99
2019-05-25T05:41:21.915Z,73.12
2019-05-25T05:43:52.871Z,73.83
2019-05-25T05:46:21.849Z,74.30
2019-05-25T05:48:51.808Z,73.71
2019-05-25T05:51:23.117Z,73.53
2019-05-25T05:53:55.108Z,72.14
2019-05-25T05:56:23.510Z,71.92
2019-05-25T05:58:51.942Z,70.84
2019-05-25T06:01:20.343Z,69.49
2019-05-25T06:03:48.745Z,70.07
2019-05-25T06:06:17.149Z,69.74
2019-05-25T06:08:45.551Z,68.26
2019-05-25T06:11:14.196Z,68.15
2019-05-25T06:13:42.601Z,68.11
2019-05-25T06:16:10.995Z,67.29
2019-05-25T06:18:39.429Z,67.41
2019-05-25T06:21:07.803Z,67.21
2019-05-25T06:23:36.253Z,67.08
2019-05-25T06:26:04.773Z,66.42
2019-05-25T06:28:33.172Z,65.55
2019-05-25T06:31:01.589Z,64.29
2019-05-25T06:33:29.983Z,63.77
2019-05-25T06:35:58.388Z,62.41
2019-05-25T06:38:26.801Z,61.86
2019-05-25T06:40:55.204Z,62.65
2019-05-25T06:43:23.603Z,61.75
2019-05-25T06:45:52.004Z,61.78
2019-05-25T06:48:20.495Z,61.88
2019-05-25T06:50:48.901Z,62.01
2019-05-25T06:53:17.413Z,62.47
2019-05-25T06:55:45.814Z,61.85
2019-05-25T06:58:14.991Z,60.59
2019-05-25T07:00:43.886Z,60.27
2019-05-25T07:03:12.297Z,59.58
2019-05-25T07:05:40.718Z,58.90
2019-05-25T07:08:09.231Z,58.71
2019-05-25T07:10:37.646Z,58.79
2019-05-25T07:13:06.133Z,57.94
2019-05-25T07:15:34.548Z,57.14
2019-05-25T07:18:02.951Z,56.37
2019-05-25T07:20:31.529Z,56.73
2019-05-25T07:22:59.932Z,57.29
2019-05-25T07:25:28.700Z,57.83
2019-05-25T07:28:00.150Z,58.27
2019-05-25T07:30:27.241Z,59.21
2019-05-25T07:32:55.800Z,59.98
2019-05-25T07:35:24.117Z,61.11
2019-05-25T07:37:52.526Z,62.16
2019-05-25T07:40:20.921Z,62.51
2019-05-25T07:42:49.330Z,63.18
2019-05-25T07:45:18.007Z,64.46
2019-05-25T07:47:46.401Z,63.93
2019-05-25T07:50:16.044Z,63.05
2019-05-25T07:52:44.451Z,62.93
2019-05-25T07:55:13.010Z,62.60
2019-05-25T07:57:41.416Z,63.12
2019-05-25T08:00:10.267Z,62.79
2019-05-25T08:02:38.672Z,63.23
2019-05-25T08:05:08.209Z,64.53
2019-05-25T08:07:36.596Z,65.26
2019-05-25T08:10:05.977Z,65.05
2019-05-25T08:12:34.365Z,65.02
2019-05-25T08:15:02.776Z,66.35
2019-05-25T08:17:31.173Z,66.37
2019-05-25T08:19:59.588Z,67.67
2019-05-25T08:22:28.066Z,67.75
2019-05-25T08:24:56.483Z,67.96
2019-05-25T08:27:24.888Z,67.81
2019-05-25T08:29:53.306Z,68.44
2019-05-25T08:32:21.706Z,68.10
2019-05-25T08:34:50.127Z,68.38
2019-05-25T08:37:18.531Z,68.03
2019-05-25T08:39:46.938Z,67.45
2019-05-25T08:42:15.405Z,66.88
2019-05-25T08:44:43.825Z,67.17
2019-05-25T08:47:12.227Z,67.17
2019-05-25T08:49:40.637Z,66.66
2019-05-25T08:52:09.037Z,67.23
2019-05-25T08:54:37.450Z,66.15
2019-05-25T08:57:05.860Z,65.68
2019-05-25T08:59:34.278Z,63.99
2019-05-25T09:02:02.690Z,63.75
2019-05-25T09:04:31.192Z,63.12
2019-05-25T09:06:59.597Z,62.21
2019-05-25T09:09:28.008Z,61.19
2019-05-25T09:11:56.742Z,59.57
2019-05-25T09:14:25.148Z,59.67
2019-05-25T09:16:53.552Z,59.37
2019-05-25T09:19:21.966Z,58.92
2019-05-25T09:22:02.095Z,59.01
2019-05-25T09:24:20.535Z,59.09
2019-05-25T09:26:48.948Z,59.04
2019-05-25T09:29:17.356Z,59.41
2019-05-25T09:31:45.763Z,59.57
2019-05-25T09:34:14.165Z,59.57
2019-05-25T09:36:42.577Z,58.69
2019-05-25T09:39:10.982Z,58.12
2019-05-25T09:41:39.391Z,57.88
2019-05-25T09:44:07.789Z,58.56
2019-05-25T09:46:36.213Z,58.89
2019-05-25T09:49:04.681Z,60.34
2019-05-25T09:51:33.084Z,58.96
2019-05-25T09:54:01.486Z,57.81
2019-05-25T09:56:29.903Z,57.69
2019-05-25T09:58:58.304Z,57.37
2019-05-25T10:01:26.725Z,57.21
2019-05-25T10:03:56.715Z,57.25
2019-05-25T10:06:25.316Z,57.76
2019-05-25T10:08:53.731Z,57.04
2019-05-25T10:11:22.157Z,57.36
2019-05-25T10:13:50.589Z,57.44
2019-05-25T10:16:19.099Z,58.59
2019-05-25T10:18:47.451Z,59.44
2019-05-25T10:21:15.839Z,58.32
2019-05-25T10:23:44.243Z,57.31
2019-05-25T10:26:12.662Z,56.81
2019-05-25T10:28:41.060Z,57.20
2019-05-25T10:31:09.472Z,56.34
2019-05-25T10:33:37.910Z,56.67
2019-05-25T10:36:06.324Z,55.69
2019-05-25T10:38:34.716Z,55.70
2019-05-25T10:41:03.125Z,55.43
2019-05-25T10:43:31.531Z,54.04
2019-05-25T10:45:59.943Z,54.56
2019-05-25T10:48:28.350Z,52.84
2019-05-25T10:50:56.754Z,52.26
2019-05-25T10:53:25.197Z,53.06
2019-05-25T10:55:53.601Z,51.83
2019-05-25T10:58:22.017Z,50.94
2019-05-25T11:00:50.988Z,50.92
2019-05-25T11:03:19.402Z,49.19
2019-05-25T11:05:47.823Z,49.04
2019-05-25T11:08:16.210Z,48.55
2019-05-25T11:10:44.630Z,49.47
2019-05-25T11:13:13.154Z,50.10
2019-05-25T11:15:41.583Z,49.11
2019-05-25T11:18:10.005Z,51.08
2019-05-25T11:20:38.411Z,51.79
2019-05-25T11:23:06.828Z,51.43
2019-05-25T11:25:35.239Z,52.35
2019-05-25T11:28:03.640Z,50.85
2019-05-25T11:30:32.055Z,51.37
2019-05-25T11:33:00.477Z,51.59
2019-05-25T11:35:28.879Z,50.06
2019-05-25T11:37:57.427Z,51.09
2019-05-25T11:40:26.360Z,51.29
2019-05-25T11:42:54.763Z,51.97
2019-05-25T11:45:23.376Z,51.54
2019-05-25T11:47:51.839Z,51.13
2019-05-25T11:50:20.309Z,51.69
2019-05-25T11:52:48.863Z,51.05
2019-05-25T11:55:17.800Z,51.00
2019-05-25T11:57:46.214Z,51.78
2019-05-25T12:00:25.029Z,52.10
2019-05-25T12:02:46.979Z,51.48
2019-05-25T12:05:16.017Z,51.35
2019-05-25T12:07:45.130Z,50.31
2019-05-25T12:10:14.122Z,51.46
2019-05-25T12:12:42.538Z,51.54
2019-05-25T12:15:11.169Z,50.62
2019-05-25T12:17:39.577Z,51.43
2019-05-25T12:20:08.719Z,50.40
2019-05-25T12:22:37.241Z,49.50
2019-05-25T12:25:06.785Z,50.09
2019-05-25T12:27:35.225Z,50.70
2019-05-25T12:30:07.246Z,49.38
2019-05-25T12:32:35.673Z,49.17
2019-05-25T12:35:06.388Z,48.77
2019-05-25T12:37:34.791Z,49.23
2019-05-25T12:40:04.269Z,48.86
2019-05-25T12:42:32.764Z,48.46
2019-05-25T12:45:01.231Z,48.42
2019-05-25T12:47:29.698Z,48.69
2019-05-25T12:49:58.097Z,47.87
2019-05-25T12:52:26.505Z,48.29
2019-05-25T12:54:54.912Z,47.71
2019-05-25T12:57:24.216Z,47.50
2019-05-25T12:59:52.745Z,49.49
2019-05-25T13:02:21.161Z,48.47
2019-05-25T13:04:49.607Z,49.43
2019-05-25T13:07:18.093Z,50.79
2019-05-25T13:09:46.480Z,50.10
2019-05-25T13:12:14.894Z,50.55
2019-05-25T13:14:43.313Z,49.41
2019-05-25T13:17:11.731Z,48.37
2019-05-25T13:19:40.137Z,48.10
2019-05-25T13:22:08.544Z,48.08
2019-05-25T13:24:37.022Z,47.90
2019-05-25T13:27:05.500Z,48.18
2019-05-25T13:29:33.903Z,47.43
2019-05-25T13:32:02.324Z,47.31
2019-05-25T13:34:30.784Z,48.32
2019-05-25T13:37:01.659Z,48.30
2019-05-25T13:39:29.332Z,47.50
2019-05-25T13:41:57.734Z,48.70
2019-05-25T13:44:26.156Z,48.77
2019-05-25T13:46:54.579Z,50.55
2019-05-25T13:49:23.004Z,49.48
2019-05-25T13:51:51.419Z,50.19
2019-05-25T13:54:19.853Z,51.18
2019-05-25T13:56:48.297Z,52.41
2019-05-25T13:59:16.812Z,51.45
2019-05-25T14:01:45.350Z,50.91
2019-05-25T14:04:13.805Z,51.01
2019-05-25T14:06:42.300Z,50.89
2019-05-25T14:09:10.708Z,51.65
2019-05-25T14:11:39.122Z,49.62
2019-05-25T14:14:07.596Z,48.28
2019-05-25T14:16:36.026Z,49.08
2019-05-25T14:19:04.498Z,48.58
2019-05-25T14:21:32.921Z,50.02
2019-05-25T14:24:01.438Z,50.20
2019-05-25T14:26:29.867Z,50.60
2019-05-25T14:28:58.387Z,51.63
2019-05-25T14:31:26.798Z,52.06
2019-05-25T14:33:55.206Z,52.14
2019-05-25T14:36:23.628Z,51.93
2019-05-25T14:38:52.033Z,51.72
2019-05-25T14:41:20.498Z,51.13
2019-05-25T14:43:48.904Z,52.04
2019-05-25T14:46:27.296Z,51.74
2019-05-25T14:48:47.471Z,52.35
2019-05-25T14:51:15.901Z,51.53
2019-05-25T14:53:44.295Z,52.77
2019-05-25T14:56:12.700Z,51.43
2019-05-25T14:58:41.140Z,50.74
2019-05-25T15:01:09.540Z,49.33
2019-05-25T15:03:37.964Z,49.71
2019-05-25T15:06:06.407Z,48.23
2019-05-25T15:08:34.803Z,49.21
2019-05-25T15:11:03.213Z,47.68
2019-05-25T15:13:31.625Z,48.22
2019-05-25T15:16:00.036Z,48.05
2019-05-25T15:18:28.526Z,47.63
2019-05-25T15:20:56.919Z,46.93
2019-05-25T15:23:25.421Z,46.64
2019-05-25T15:25:53.816Z,47.37
2019-05-25T15:28:22.232Z,47.58
2019-05-25T15:30:50.645Z,49.76
2019-05-25T15:33:19.498Z,49.93
2019-05-25T15:35:47.933Z,50.89
2019-05-25T15:38:16.355Z,51.51
2019-05-25T15:40:44.739Z,51.43
2019-05-25T15:43:13.156Z,51.26
2019-05-25T15:45:41.553Z,51.41
2019-05-25T15:48:09.982Z,51.28
2019-05-25T15:50:38.387Z,50.97
2019-05-25T15:53:06.801Z,49.85
2019-05-25T15:55:35.195Z,50.21
2019-05-25T15:58:03.600Z,50.42
2019-05-25T16:00:46.285Z,49.97
2019-05-25T16:03:15.740Z,49.42
2019-05-25T16:05:47.385Z,49.97
2019-05-25T16:08:14.279Z,49.99
2019-05-25T16:10:42.705Z,51.09
2019-05-25T16:13:11.127Z,51.75
2019-05-25T16:15:39.540Z,50.89
2019-05-25T16:18:08.008Z,51.72
2019-05-25T16:20:36.373Z,50.49
2019-05-25T16:23:04.844Z,51.33
2019-05-25T16:25:33.789Z,50.99
2019-05-25T16:28:02.219Z,51.01
2019-05-25T16:30:31.552Z,50.58
2019-05-25T16:33:11.423Z,49.82
2019-05-25T16:35:30.241Z,49.38
2019-05-25T16:37:58.830Z,49.58
2019-05-25T16:40:27.374Z,49.61
2019-05-25T16:42:55.769Z,49.47
2019-05-25T16:45:24.175Z,49.73
2019-05-25T16:47:52.586Z,49.87
2019-05-25T16:50:21.379Z,50.15
2019-05-25T16:52:49.797Z,51.07
2019-05-25T16:55:18.622Z,50.08
2019-05-25T16:57:47.024Z,50.72
2019-05-25T17:00:18.521Z,51.16
2019-05-25T17:02:46.994Z,51.32
2019-05-25T17:05:15.631Z,50.58
2019-05-25T17:07:44.034Z,51.00
2019-05-25T17:10:12.552Z,50.66
2019-05-25T17:12:40.949Z,50.56
2019-05-25T17:15:09.698Z,51.22
2019-05-25T17:17:38.103Z,51.24
2019-05-25T17:20:06.746Z,50.98
2019-05-25T17:22:35.139Z,51.00
2019-05-25T17:25:04.320Z,51.03
2019-05-25T17:27:32.722Z,51.64
2019-05-25T17:30:01.156Z,51.63
2019-05-25T17:32:29.787Z,51.81
2019-05-25T17:34:58.200Z,52.55
2019-05-25T17:37:26.600Z,53.05
2019-05-25T17:39:55.019Z,53.78
2019-05-25T17:42:23.444Z,54.00
2019-05-25T17:44:51.870Z,54.26
2019-05-25T17:47:20.286Z,54.59
2019-05-25T17:49:48.677Z,54.19
2019-05-25T17:52:17.093Z,53.42
2019-05-25T17:54:45.506Z,53.91
2019-05-25T17:57:13.911Z,53.99
2019-05-25T17:59:42.305Z,53.61
2019-05-25T18:02:10.730Z,54.05
2019-05-25T18:04:39.140Z,53.58
2019-05-25T18:07:07.548Z,53.00
2019-05-25T18:09:35.990Z,52.86
2019-05-25T18:12:04.840Z,52.20
2019-05-25T18:14:33.244Z,52.92
2019-05-25T18:17:01.755Z,52.61
2019-05-25T18:19:30.158Z,52.76
2019-05-25T18:21:59.178Z,52.17
2019-05-25T18:24:27.652Z,52.76
2019-05-25T18:26:56.069Z,53.39
2019-05-25T18:29:25.424Z,53.66
2019-05-25T18:31:53.914Z,53.96
2019-05-25T18:34:22.698Z,54.39
2019-05-25T18:36:51.157Z,55.08
2019-05-25T18:39:19.554Z,55.04
2019-05-25T18:41:47.966Z,55.22
2019-05-25T18:44:16.362Z,55.10
2019-05-25T18:46:44.766Z,55.59
2019-05-25T18:49:13.208Z,56.04
2019-05-25T18:51:41.586Z,56.32
2019-05-25T18:54:09.982Z,57.24
2019-05-25T18:56:38.393Z,58.59
2019-05-25T18:59:06.789Z,59.25
2019-05-25T19:01:35.281Z,59.68
2019-05-25T19:04:03.683Z,59.91
2019-05-25T19:06:32.104Z,60.07
2019-05-25T19:09:00.506Z,60.46
2019-05-25T19:11:28.911Z,60.95
2019-05-25T19:13:57.307Z,61.00
2019-05-25T19:16:25.712Z,61.23
2019-05-25T19:18:54.120Z,61.21
2019-05-25T19:21:22.526Z,61.14
2019-05-25T19:23:51.029Z,61.44
2019-05-25T19:26:19.412Z,61.11
2019-05-25T19:28:47.826Z,61.17
2019-05-25T19:31:16.230Z,61.35
2019-05-25T19:33:44.624Z,61.46
2019-05-25T19:36:13.029Z,61.34
2019-05-25T19:38:41.550Z,61.21
2019-05-25T19:41:09.951Z,61.19
2019-05-25T19:43:38.386Z,61.53
2019-05-25T19:46:06.876Z,62.38
2019-05-25T19:48:35.372Z,62.67
2019-05-25T19:51:03.785Z,62.44
2019-05-25T19:53:32.203Z,62.64
2019-05-25T19:56:00.699Z,62.58
2019-05-25T19:58:29.109Z,62.90
2019-05-25T20:00:57.550Z,63.12
2019-05-25T20:03:25.970Z,63.35
2019-05-25T20:05:54.421Z,63.71
2019-05-25T20:08:22.824Z,63.70
2019-05-25T20:10:55.193Z,63.81
2019-05-25T20:13:21.413Z,64.22
2019-05-25T20:15:49.812Z,64.36
2019-05-25T20:18:18.228Z,64.36
2019-05-25T20:20:46.639Z,64.13
2019-05-25T20:23:15.053Z,64.35
2019-05-25T20:25:43.462Z,63.98
2019-05-25T20:28:11.864Z,64.00
2019-05-25T20:30:40.269Z,64.41
2019-05-25T20:33:08.693Z,64.67
2019-05-25T20:35:37.085Z,64.75
2019-05-25T20:38:05.499Z,65.89
2019-05-25T20:40:33.903Z,65.81
2019-05-25T20:43:02.366Z,65.80
2019-05-25T20:45:30.703Z,65.56
2019-05-25T20:47:59.117Z,65.71
2019-05-25T20:50:27.533Z,67.01
2019-05-25T20:52:55.986Z,67.61
2019-05-25T20:55:24.379Z,68.12
2019-05-25T20:57:52.805Z,67.85
2019-05-25T21:00:24.151Z,67.98
2019-05-25T21:03:05.256Z,67.55
2019-05-25T21:05:21.894Z,67.75
2019-05-25T21:07:50.318Z,68.10
2019-05-25T21:10:18.716Z,68.63
2019-05-25T21:12:47.120Z,68.75
2019-05-25T21:15:15.592Z,68.76
2019-05-25T21:17:44.004Z,68.71
2019-05-25T21:20:13.046Z,68.76
2019-05-25T21:22:41.455Z,69.02
2019-05-25T21:25:10.704Z,69.07
2019-05-25T21:27:39.108Z,68.83
2019-05-25T21:30:08.897Z,68.77
2019-05-25T21:32:37.312Z,68.67
2019-05-25T21:35:06.848Z,68.87
2019-05-25T21:37:35.268Z,68.99
2019-05-25T21:40:05.113Z,69.60
2019-05-25T21:42:33.515Z,69.56
2019-05-25T21:45:01.929Z,69.84
2019-05-25T21:47:30.320Z,69.87
2019-05-25T21:49:58.737Z,69.61
2019-05-25T21:52:27.140Z,69.45
2019-05-25T21:54:55.550Z,69.10
2019-05-25T21:57:23.947Z,69.08
2019-05-25T21:59:52.354Z,69.63
2019-05-25T22:02:20.749Z,69.83
2019-05-25T22:04:49.161Z,71.06
2019-05-25T22:07:17.566Z,71.12
2019-05-25T22:09:46.018Z,72.03
2019-05-25T22:12:14.375Z,72.37
2019-05-25T22:14:42.785Z,74.70
2019-05-25T22:17:11.196Z,75.33
2019-05-25T22:19:39.606Z,74.99
2019-05-25T22:22:08.068Z,74.01
2019-05-25T22:24:36.472Z,74.02
2019-05-25T22:27:04.871Z,73.64
2019-05-25T22:29:33.288Z,73.85
2019-05-25T22:32:01.698Z,73.98
2019-05-25T22:34:30.103Z,73.76
2019-05-25T22:36:58.684Z,73.94
2019-05-25T22:39:27.088Z,73.77
2019-05-25T22:41:55.492Z,73.72
2019-05-25T22:44:24.094Z,73.60
2019-05-25T22:46:52.656Z,73.26
2019-05-25T22:49:21.077Z,73.03
2019-05-25T22:51:49.482Z,72.83
2019-05-25T22:54:18.842Z,72.75
2019-05-25T22:56:47.468Z,72.53
2019-05-25T22:59:15.883Z,72.56
2019-05-25T23:01:44.286Z,72.51
2019-05-25T23:04:12.702Z,73.30
2019-05-25T23:06:56.659Z,73.04
2019-05-25T23:09:11.234Z,72.83
2019-05-25T23:11:39.632Z,72.71
2019-05-25T23:14:09.911Z,72.67
2019-05-25T23:16:38.402Z,73.09
2019-05-25T23:19:06.816Z,73.72
2019-05-25T23:21:35.213Z,73.89
2019-05-25T23:24:03.674Z,74.33
2019-05-25T23:26:32.086Z,74.28
2019-05-25T23:29:00.504Z,73.81
2019-05-25T23:31:28.904Z,73.56
2019-05-25T23:33:57.323Z,73.28
2019-05-25T23:36:25.719Z,73.18
2019-05-25T23:38:54.130Z,73.03
2019-05-25T23:41:22.537Z,73.04
2019-05-25T23:43:50.940Z,72.96
2019-05-25T23:46:19.348Z,73.16
2019-05-25T23:48:47.765Z,72.95
2019-05-25T23:51:16.207Z,73.28
2019-05-25T23:53:44.613Z,73.15
2019-05-25T23:56:13.292Z,73.15
2019-05-25T23:58:41.719Z,73.35
